Time;durP1;ratioP1;P1;durP2;ratioP2;P2;SDS_P1;SDS_P2;PMS_P1;PMS_P2;Temp;Humidity;BMP_temperature;BMP_pressure;BME280_temperature;BME280_humidity;BME280_pressure;Samples;Min_cycle;Max_cycle;Signal;HPM_P1;HPM_P2
2022/11/22 00:01:08;;;;;;;6.28;2.50;;;;;;;1.93;72.08;100908.81;5032809;28;20037;-77
2022/11/22 00:03:35;;;;;;;6.03;2.75;;;;;;;1.93;71.87;100907.94;5033290;28;20045;-76
2022/11/22 00:06:01;;;;;;;5.07;2.53;;;;;;;1.91;72.16;100910.50;5037784;28;20041;-77
2022/11/22 00:08:30;;;;;;;5.90;2.38;;;;;;;1.92;72.10;100919.09;5031813;28;20055;-77
2022/11/22 00:10:57;;;;;;;4.13;1.73;;;;;;;1.92;71.84;100914.81;5035550;28;20049;-77
2022/11/22 00:13:24;;;;;;;4.43;1.70;;;;;;;1.89;71.93;100917.34;5035616;28;20049;-77
2022/11/22 00:15:59;;;;;;;7.18;2.15;;;;;;;1.85;71.69;100910.41;5028986;28;20418;-77
2022/11/22 00:18:25;;;;;;;7.13;2.33;;;;;;;1.90;71.15;100921.63;5033569;28;20045;-75
2022/11/22 00:20:52;;;;;;;4.25;2.28;;;;;;;1.90;71.69;100913.91;5033867;28;20652;-77
2022/11/22 00:23:19;;;;;;;5.47;2.50;;;;;;;1.90;71.69;100916.47;5031698;28;20119;-76
2022/11/22 00:25:48;;;;;;;5.68;2.90;;;;;;;1.89;71.57;100913.91;5033788;28;20041;-78
2022/11/22 00:28:15;;;;;;;5.22;2.83;;;;;;;1.88;71.25;100910.47;5031998;28;20041;-78
2022/11/22 00:30:42;;;;;;;5.97;3.38;;;;;;;1.87;71.63;100908.69;5029696;28;20056;-77
2022/11/22 00:33:08;;;;;;;4.85;2.22;;;;;;;1.88;70.70;100915.59;5035836;28;20139;-77
2022/11/22 00:35:35;;;;;;;6.70;2.40;;;;;;;1.88;71.19;100912.13;5036432;28;20120;-77
2022/11/22 00:38:02;;;;;;;4.53;2.20;;;;;;;1.88;71.07;100905.31;5031821;28;20049;-76
2022/11/22 00:40:29;;;;;;;3.65;1.80;;;;;;;1.87;70.82;100908.69;5028516;28;20049;-76
2022/11/22 00:42:57;;;;;;;5.63;2.22;;;;;;;1.88;70.80;100899.25;5036017;28;20053;-76
2022/11/22 00:45:24;;;;;;;5.57;2.47;;;;;;;1.87;70.95;100908.69;5032886;28;20502;-78
2022/11/22 00:47:51;;;;;;;4.60;2.40;;;;;;;1.85;71.45;100902.69;5031225;28;20124;-78
2022/11/22 00:50:18;;;;;;;4.22;2.58;;;;;;;1.86;71.78;100906.97;5032079;28;20041;-77
2022/11/22 00:52:45;;;;;;;7.15;2.80;;;;;;;1.87;71.92;100911.28;5030667;28;20045;-77
2022/11/22 00:55:11;;;;;;;1.63;1.15;;;;;;;1.88;72.09;100913.03;5030822;28;20041;-78
2022/11/22 00:57:38;;;;;;;5.28;2.53;;;;;;;1.87;71.43;100919.00;5034709;28;20042;-74
2022/11/22 01:00:09;;;;;;;3.08;1.73;;;;;;;1.89;71.48;100908.75;5034299;28;20037;-77
2022/11/22 01:02:35;;;;;;;6.70;3.22;;;;;;;1.86;71.92;100912.13;5035062;28;20037;-77
2022/11/22 01:05:03;;;;;;;6.70;3.00;;;;;;;1.90;71.72;100919.06;5032940;28;20490;-76
2022/11/22 01:07:30;;;;;;;5.15;2.20;;;;;;;1.89;71.26;100917.34;5027611;28;20067;-76
2022/11/22 01:09:57;;;;;;;5.95;2.67;;;;;;;1.89;72.02;100912.19;5035508;28;20051;-76
2022/11/22 01:12:24;;;;;;;5.78;2.65;;;;;;;1.89;71.65;100916.47;5034428;28;20060;-75
2022/11/22 01:14:51;;;;;;;6.22;3.22;;;;;;;1.91;71.30;100918.25;5035104;28;20133;-76
2022/11/22 01:17:19;;;;;;;6.85;1.98;;;;;;;1.89;71.32;100907.03;5034660;28;20045;-76
2022/11/22 01:19:46;;;;;;;6.60;1.73;;;;;;;1.91;71.66;100913.09;5032062;28;20044;-76
2022/11/22 01:22:13;;;;;;;6.18;2.90;;;;;;;1.91;71.39;100910.50;5036891;28;20053;-76
2022/11/22 01:24:40;;;;;;;9.60;3.95;;;;;;;1.92;71.96;100912.25;5031205;28;20060;-77
2022/11/22 01:27:06;;;;;;;5.90;2.60;;;;;;;1.93;71.27;100924.28;5035172;28;20045;-76
2022/11/22 01:29:33;;;;;;;5.63;2.70;;;;;;;1.93;71.36;100929.41;5028207;28;20806;-77
2022/11/22 01:32:00;;;;;;;6.00;3.00;;;;;;;1.94;71.29;100930.31;5030206;28;20055;-76
2022/11/22 01:34:28;;;;;;;6.32;3.35;;;;;;;1.86;71.17;100913.84;5035542;28;20055;-76
2022/11/22 01:36:55;;;;;;;5.90;2.65;;;;;;;1.94;71.17;100926.03;5032624;28;20053;-73
2022/11/22 01:39:22;;;;;;;6.30;2.78;;;;;;;1.94;71.13;100920.88;5032382;28;20049;-76
2022/11/22 01:41:49;;;;;;;6.85;2.47;;;;;;;1.96;71.57;100924.34;5031958;28;20045;-77
2022/11/22 01:44:20;;;;;;;5.75;2.35;;;;;;;1.96;71.05;100926.94;5030320;28;20056;-76
2022/11/22 01:46:49;;;;;;;3.95;2.65;;;;;;;1.98;71.62;100932.09;5035109;28;20045;-76
2022/11/22 01:49:25;;;;;;;6.97;3.30;;;;;;;1.98;71.53;100932.09;5028320;28;20060;-75
2022/11/22 01:51:57;;;;;;;5.57;2.17;;;;;;;1.98;71.36;100932.09;5032697;28;20049;-76
2022/11/22 01:54:27;;;;;;;5.72;2.70;;;;;;;1.98;71.55;100932.09;5036355;28;20549;-75
2022/11/22 01:56:57;;;;;;;6.38;2.50;;;;;;;1.99;71.07;100938.97;5034482;28;20073;-75
2022/11/22 01:59:28;;;;;;;5.03;2.30;;;;;;;1.99;71.43;100934.72;5034832;28;20046;-75
2022/11/22 02:01:55;;;;;;;4.35;2.50;;;;;;;1.99;71.40;100934.72;5037742;28;20660;-76
2022/11/22 02:04:25;;;;;;;7.10;2.78;;;;;;;1.97;71.36;100938.09;5032232;28;20051;-75
2022/11/22 02:06:59;;;;;;;5.95;2.33;;;;;;;1.99;71.54;100934.72;5033144;28;20049;-76
2022/11/22 02:09:27;;;;;;;6.07;2.35;;;;;;;2.00;71.47;100944.16;5032503;28;20055;-75
2022/11/22 02:11:58;;;;;;;4.90;2.85;;;;;;;1.98;71.22;100937.25;5034531;28;20064;-76
2022/11/22 02:14:27;;;;;;;6.00;2.35;;;;;;;1.99;71.66;100942.44;5034987;28;20056;-75
2022/11/22 02:16:54;;;;;;;2.65;1.55;;;;;;;1.99;71.38;100939.88;5035069;28;20057;-76
2022/11/22 02:19:40;;;;;;;6.75;2.70;;;;;;;1.96;71.20;100933.78;5036554;28;20577;-75
2022/11/22 02:22:19;;;;;;;5.13;2.17;;;;;;;2.01;70.72;100945.91;5041536;28;20053;-76
2022/11/22 02:24:53;;;;;;;4.25;2.70;;;;;;;2.02;70.71;100954.50;5037323;28;20068;-76
2022/11/22 02:27:22;;;;;;;9.95;3.58;;;;;;;2.02;70.70;100957.97;5037765;28;20041;-75
2022/11/22 02:29:49;;;;;;;8.00;2.50;;;;;;;2.01;71.38;100945.91;5039229;28;20047;-76
2022/11/22 02:32:16;;;;;;;3.75;2.15;;;;;;;2.00;71.39;100956.19;5039114;28;20549;-76
2022/11/22 02:34:44;;;;;;;7.57;2.55;;;;;;;2.02;70.73;100957.97;5035084;28;20462;-75
2022/11/22 02:37:14;;;;;;;6.78;3.45;;;;;;;2.03;71.06;100954.53;5039565;28;20057;-75
2022/11/22 02:39:44;;;;;;;4.75;2.47;;;;;;;2.03;70.54;100957.09;5037377;28;20053;-76
2022/11/22 02:42:11;;;;;;;4.03;2.28;;;;;;;2.02;70.54;100950.22;5036117;28;20051;-75
2022/11/22 02:44:41;;;;;;;11.07;3.40;;;;;;;2.03;70.53;100946.81;5040427;28;20076;-74
2022/11/22 02:47:08;;;;;;;6.10;1.85;;;;;;;2.05;70.71;100951.09;5037253;28;20045;-75
2022/11/22 02:49:35;;;;;;;4.97;2.83;;;;;;;2.03;71.01;100957.09;5037782;28;20434;-75
2022/11/22 02:52:01;;;;;;;6.07;2.47;;;;;;;2.02;70.87;100952.81;5038255;28;20646;-75
2022/11/22 02:54:28;;;;;;;4.65;2.33;;;;;;;2.03;70.38;100958.81;5038962;28;20132;-75
2022/11/22 02:56:55;;;;;;;8.27;2.30;;;;;;;2.03;70.65;100967.41;5040636;28;20052;-76
2022/11/22 02:59:22;;;;;;;5.18;2.55;;;;;;;1.94;70.25;100946.63;5037254;28;20055;-75
2022/11/22 03:01:50;;;;;;;5.35;2.92;;;;;;;2.02;69.63;100968.28;5038032;28;20055;-75
2022/11/22 03:04:24;;;;;;;6.43;2.92;;;;;;;2.00;70.01;100956.19;5038369;28;20506;-75
2022/11/22 03:06:53;;;;;;;7.10;3.33;;;;;;;2.03;69.88;100970.00;5038125;28;20080;-74
2022/11/22 03:09:20;;;;;;;7.45;3.22;;;;;;;2.00;70.32;100957.06;5027919;28;20135;-75
2022/11/22 03:11:47;;;;;;;4.72;2.38;;;;;;;2.00;70.96;100962.22;5038375;28;20057;-75
2022/11/22 03:14:15;;;;;;;5.20;1.73;;;;;;;2.02;70.46;100957.06;5034855;28;20049;-75
2022/11/22 03:16:41;;;;;;;8.23;2.70;;;;;;;2.01;69.76;100961.34;5035019;28;20404;-77
2022/11/22 03:19:10;;;;;;;5.60;2.00;;;;;;;2.01;69.99;100961.34;5034007;28;20041;-75
2022/11/22 03:21:38;;;;;;;6.10;2.78;;;;;;;2.01;70.06;100960.50;5035025;28;20049;-75
2022/11/22 03:24:06;;;;;;;7.53;3.83;;;;;;;2.02;70.20;100968.28;5038014;28;20459;-76
2022/11/22 03:26:33;;;;;;;5.88;2.58;;;;;;;2.02;70.48;100968.28;5035724;28;20049;-75
2022/11/22 03:29:00;;;;;;;5.65;2.22;;;;;;;2.03;69.98;100971.72;5039833;28;20045;-74
2022/11/22 03:31:27;;;;;;;4.32;2.95;;;;;;;2.02;69.55;100970.84;5036509;28;20528;-75
2022/11/22 03:33:54;;;;;;;4.45;2.45;;;;;;;2.02;69.62;100973.41;5039522;28;20063;-75
2022/11/22 03:36:23;;;;;;;4.05;2.03;;;;;;;2.04;69.72;100963.13;5034874;28;20049;-75
2022/11/22 03:38:50;;;;;;;3.20;1.85;;;;;;;2.02;69.79;100963.13;5039812;28;20050;-75
2022/11/22 03:41:17;;;;;;;4.78;1.63;;;;;;;2.03;70.08;100957.09;5038138;28;20068;-75
2022/11/22 03:43:44;;;;;;;7.97;2.70;;;;;;;2.04;69.50;100955.41;5040135;28;20045;-74
2022/11/22 03:46:14;;;;;;;5.55;2.58;;;;;;;2.03;69.19;100963.97;5034688;28;20045;-74
2022/11/22 03:48:41;;;;;;;5.45;2.50;;;;;;;2.03;68.79;100964.84;5036538;28;20074;-75
2022/11/22 03:51:08;;;;;;;5.32;2.10;;;;;;;2.02;69.74;100963.13;5036285;28;20047;-75
2022/11/22 03:53:37;;;;;;;4.53;2.33;;;;;;;2.02;69.40;100960.53;5038971;28;20046;-75
2022/11/22 03:56:05;;;;;;;4.10;1.92;;;;;;;2.00;69.24;100949.31;5041747;28;20049;-73
2022/11/22 03:58:33;;;;;;;4.32;1.88;;;;;;;2.02;69.30;100957.06;5038097;28;20191;-75
2022/11/22 04:01:00;;;;;;;3.60;2.13;;;;;;;2.01;69.57;100963.06;5042932;28;20505;-74
2022/11/22 04:03:27;;;;;;;8.80;3.25;;;;;;;1.99;69.49;100965.63;5039025;28;20410;-74
2022/11/22 04:05:54;;;;;;;3.67;2.20;;;;;;;2.01;68.89;100957.91;5037089;28;20127;-75
2022/11/22 04:08:21;;;;;;;6.57;2.25;;;;;;;1.99;69.79;100968.22;5040389;28;20053;-75
2022/11/22 04:10:50;;;;;;;3.67;1.15;;;;;;;1.94;69.46;100946.63;5033870;28;20050;-75
2022/11/22 04:13:17;;;;;;;5.35;2.03;;;;;;;2.00;68.79;100962.22;5037591;28;20049;-75
2022/11/22 04:15:43;;;;;;;5.57;2.42;;;;;;;1.99;68.98;100964.75;5043018;28;20041;-74
2022/11/22 04:18:10;;;;;;;4.60;1.73;;;;;;;1.99;69.12;100965.63;5037223;28;20054;-74
2022/11/22 04:23:24;;;;;;;2.90;1.30;;;;;;;1.99;68.83;100975.03;5037226;28;20540;-75
2022/11/22 04:25:53;;;;;;;5.05;1.65;;;;;;;1.99;69.14;100975.03;5040484;28;20793;-75
2022/11/22 04:28:22;;;;;;;4.70;2.15;;;;;;;1.99;69.14;100980.19;5036749;28;20049;-76
2022/11/22 04:33:34;;;;;;;4.50;2.17;;;;;;;2.00;68.87;100981.97;5040170;28;20047;-75
2022/11/22 04:36:01;;;;;;;7.35;2.90;;;;;;;1.99;68.69;100986.25;5040627;28;20128;-75
2022/11/22 04:38:28;;;;;;;8.15;2.20;;;;;;;1.97;67.79;100980.19;5037060;28;20049;-74
2022/11/22 04:40:56;;;;;;;4.45;1.80;;;;;;;1.95;68.31;100984.44;5036059;28;20051;-74
2022/11/22 04:46:10;;;;;;;6.70;2.97;;;;;;;1.82;68.03;100969.56;5036785;28;20048;-75
2022/11/22 04:48:37;;;;;;;5.97;2.60;;;;;;;1.96;68.86;100991.34;5038399;28;20147;-75
2022/11/22 04:53:49;;;;;;;5.75;2.92;;;;;;;1.96;68.81;100993.91;5044230;28;20122;-75
2022/11/22 04:56:17;;;;;;;6.72;2.70;;;;;;;1.96;69.01;100987.88;5039865;28;20501;-75
2022/11/22 04:58:44;;;;;;;6.65;3.38;;;;;;;1.97;69.16;100989.63;5039886;28;20482;-74
2022/11/22 05:01:11;;;;;;;3.67;2.97;;;;;;;1.97;68.66;100994.78;5038838;28;20685;-75
2022/11/22 05:03:38;;;;;;;5.25;2.60;;;;;;;1.97;69.07;100995.66;5038529;28;20626;-75
2022/11/22 05:06:06;;;;;;;6.53;2.88;;;;;;;1.90;68.97;100986.03;5033269;28;20064;-74
2022/11/22 05:08:33;;;;;;;4.40;2.67;;;;;;;1.98;69.19;101002.53;5036973;28;20551;-74
2022/11/22 05:11:00;;;;;;;4.10;2.20;;;;;;;1.99;69.17;101006.84;5039282;28;20049;-75
2022/11/22 05:13:31;;;;;;;5.78;2.70;;;;;;;2.00;68.65;100995.69;5038546;28;20344;-74
2022/11/22 05:15:58;;;;;;;6.07;2.95;;;;;;;2.01;68.78;101002.59;5037098;28;20049;-74
2022/11/22 05:18:26;;;;;;;5.93;2.42;;;;;;;2.01;68.56;101005.16;5037984;28;20163;-74
2022/11/22 05:20:53;;;;;;;5.18;2.53;;;;;;;2.02;68.63;101004.34;5036200;28;20058;-74
2022/11/22 05:26:05;;;;;;;5.72;3.00;;;;;;;2.02;68.75;101003.44;5037623;28;20118;-74
2022/11/22 05:28:35;;;;;;;4.95;2.28;;;;;;;1.97;68.61;100998.22;5036833;28;20438;-74
2022/11/22 05:31:07;;;;;;;7.82;2.38;;;;;;;2.05;69.11;101010.38;5034576;28;20079;-74
2022/11/22 05:33:36;;;;;;;6.22;2.42;;;;;;;2.05;69.29;101007.78;5033323;28;20073;-74
2022/11/22 05:36:04;;;;;;;4.40;2.58;;;;;;;2.07;68.84;101011.28;5038081;28;20037;-74
2022/11/22 05:38:30;;;;;;;5.90;2.63;;;;;;;2.08;69.43;101005.28;5036511;28;20124;-75
2022/11/22 05:40:57;;;;;;;5.85;2.70;;;;;;;2.07;68.33;101009.56;5034786;28;20053;-75
2022/11/22 05:43:24;;;;;;;4.82;2.33;;;;;;;2.09;68.66;101014.75;5035215;28;20041;-74
2022/11/22 05:45:53;;;;;;;6.43;2.67;;;;;;;2.09;68.61;101017.34;5037458;28;21136;-74
2022/11/22 05:48:19;;;;;;;6.15;2.97;;;;;;;2.11;69.03;101020.81;5040527;28;20072;-74
2022/11/22 05:50:46;;;;;;;7.13;2.78;;;;;;;2.10;68.35;101021.66;5036799;28;20068;-75
2022/11/22 05:53:13;;;;;;;7.05;3.10;;;;;;;2.12;68.18;101022.56;5034151;28;20050;-76
2022/11/22 05:55:40;;;;;;;4.53;2.75;;;;;;;2.12;68.02;101019.97;5037685;28;20049;-74
2022/11/22 05:58:07;;;;;;;5.18;2.20;;;;;;;2.11;68.44;101026.84;5035913;28;20406;-75
2022/11/22 06:00:34;;;;;;;5.57;2.90;;;;;;;2.12;69.07;101022.56;5045103;28;20041;-75
2022/11/22 06:03:03;;;;;;;7.90;3.00;;;;;;;2.10;68.38;101019.06;5039896;28;20049;-74
2022/11/22 06:05:30;;;;;;;6.03;2.78;;;;;;;2.12;68.51;101022.56;5040541;28;20055;-75
2022/11/22 06:07:59;;;;;;;6.68;3.22;;;;;;;2.13;68.04;101038.03;5041734;28;20051;-76
2022/11/22 06:10:26;;;;;;;6.25;2.72;;;;;;;2.07;68.35;101019.88;5041297;28;20128;-75
2022/11/22 06:12:53;;;;;;;5.85;3.53;;;;;;;2.13;68.36;101026.84;5039145;28;20048;-75
2022/11/22 06:15:20;;;;;;;6.05;3.33;;;;;;;2.12;68.36;101035.44;5038737;28;20052;-74
2022/11/22 06:17:47;;;;;;;9.27;4.82;;;;;;;2.12;68.42;101038.88;5037876;28;20041;-74
2022/11/22 06:20:16;;;;;;;6.75;3.90;;;;;;;2.12;68.06;101040.59;5041333;28;20114;-75
2022/11/22 06:22:43;;;;;;;8.30;3.63;;;;;;;2.13;68.37;101043.19;5040349;28;20055;-74
2022/11/22 06:25:10;;;;;;;5.80;2.97;;;;;;;2.13;68.38;101044.91;5041337;28;20064;-74
2022/11/22 06:27:37;;;;;;;6.47;3.28;;;;;;;2.14;68.50;101047.53;5041201;28;20045;-74
2022/11/22 06:30:04;;;;;;;8.13;3.67;;;;;;;2.14;68.62;101049.22;5039324;28;20072;-74
2022/11/22 06:32:34;;;;;;;6.82;3.10;;;;;;;2.15;68.57;101048.38;5039246;28;20558;-74
2022/11/22 06:35:01;;;;;;;7.22;3.58;;;;;;;2.17;68.67;101057.03;5038541;28;20045;-74
2022/11/22 06:37:30;;;;;;;11.10;4.18;;;;;;;2.18;68.74;101058.75;5040243;28;20552;-74
2022/11/22 06:39:57;;;;;;;6.93;3.67;;;;;;;2.19;68.84;101065.63;5038107;28;20060;-75
2022/11/22 06:42:24;;;;;;;8.77;3.38;;;;;;;2.19;68.94;101063.94;5041273;28;20092;-74
2022/11/22 06:44:51;;;;;;;7.50;3.15;;;;;;;2.19;68.58;101068.22;5039267;28;20424;-74
2022/11/22 06:47:18;;;;;;;7.13;4.63;;;;;;;2.20;68.41;101073.41;5039116;28;20040;-74
2022/11/22 06:49:45;;;;;;;11.52;4.35;;;;;;;2.21;68.55;101067.41;5039955;28;20053;-74
2022/11/22 06:52:12;;;;;;;10.70;5.13;;;;;;;2.22;68.43;101076.00;5041022;28;20384;-74
2022/11/22 06:54:40;;;;;;;8.07;3.92;;;;;;;2.14;68.30;101059.53;5041689;28;20121;-74
2022/11/22 06:57:07;;;;;;;7.30;3.58;;;;;;;2.23;68.82;101080.34;5040109;28;20478;-74
2022/11/22 06:59:36;;;;;;;7.85;4.00;;;;;;;2.23;68.89;101078.63;5041533;28;20077;-73
2022/11/22 07:02:02;;;;;;;11.45;5.85;;;;;;;2.25;68.70;101071.81;5041539;28;20056;-74
2022/11/22 07:04:29;;;;;;;8.52;5.13;;;;;;;2.24;68.45;101070.03;5043712;28;20041;-74
2022/11/22 07:06:56;;;;;;;12.07;5.47;;;;;;;2.26;68.72;101072.66;5037182;28;20065;-72
2022/11/22 07:09:23;;;;;;;8.77;4.50;;;;;;;2.26;68.90;101070.09;5040882;28;20056;-73
2022/11/22 07:11:51;;;;;;;11.70;6.10;;;;;;;2.25;69.64;101070.94;5039692;28;20049;-72
2022/11/22 07:14:19;;;;;;;11.05;4.97;;;;;;;2.27;69.23;101083.84;5039921;28;20077;-71
2022/11/22 07:16:45;;;;;;;13.32;5.90;;;;;;;2.28;68.77;101086.47;5041190;28;20490;-71
2022/11/22 07:19:12;;;;;;;11.98;5.20;;;;;;;2.29;69.10;101085.63;5035942;28;20081;-72
2022/11/22 07:21:39;;;;;;;10.40;5.30;;;;;;;2.31;69.13;101091.69;5038021;28;20042;-71
2022/11/22 07:24:07;;;;;;;11.32;5.03;;;;;;;2.32;68.48;101095.97;5036299;28;20078;-70
2022/11/22 07:26:34;;;;;;;9.32;4.10;;;;;;;2.33;69.24;101095.13;5041130;28;20050;-70
2022/11/22 07:29:03;;;;;;;9.45;4.40;;;;;;;2.35;68.84;101103.78;5040514;28;20132;-71
2022/11/22 07:31:30;;;;;;;12.30;5.60;;;;;;;2.36;69.53;101102.97;5038818;28;20418;-73
2022/11/22 07:33:57;;;;;;;11.07;5.45;;;;;;;2.38;68.71;101103.84;5039131;28;20068;-72
2022/11/22 07:36:27;;;;;;;9.40;5.20;;;;;;;2.36;69.15;101097.81;5037856;28;20119;-73
2022/11/22 07:38:55;;;;;;;12.55;6.03;;;;;;;2.29;68.92;101082.16;5035950;28;20068;-74
2022/11/22 07:41:22;;;;;;;11.93;6.63;;;;;;;2.38;69.59;101101.25;5038727;28;20060;-74
2022/11/22 07:43:49;;;;;;;12.68;6.35;;;;;;;2.38;68.95;101102.97;5040588;28;20503;-75
2022/11/22 07:46:22;;;;;;;12.52;5.90;;;;;;;2.40;69.03;101106.47;5026316;28;20048;-74
2022/11/22 07:48:50;;;;;;;11.50;5.55;;;;;;;2.35;69.59;101102.91;5038705;28;20132;-74
2022/11/22 07:51:17;;;;;;;13.85;5.40;;;;;;;2.42;69.66;101115.97;5036020;28;20078;-74
2022/11/22 07:53:44;;;;;;;10.93;5.10;;;;;;;2.42;69.68;101115.97;5037020;28;20464;-73
2022/11/22 07:56:11;;;;;;;10.88;5.20;;;;;;;2.42;69.00;101115.06;5038377;28;20041;-73
2022/11/22 07:58:38;;;;;;;14.52;7.03;;;;;;;2.48;69.57;101130.69;5034833;28;20049;-71
2022/11/22 08:01:07;;;;;;;8.30;4.57;;;;;;;2.46;69.25;101128.06;5041740;28;20091;-71
2022/11/22 08:03:35;;;;;;;12.35;6.82;;;;;;;2.50;69.77;101138.44;5037945;28;20076;-70
2022/11/22 08:06:04;;;;;;;11.43;5.45;;;;;;;2.51;69.16;101140.22;5038788;28;20533;-74
2022/11/22 08:08:31;;;;;;;11.48;5.55;;;;;;;2.51;69.14;101141.06;5038278;28;20620;-72
2022/11/22 08:10:58;;;;;;;11.55;5.80;;;;;;;2.51;68.98;101135.03;5040999;28;20048;-72
2022/11/22 08:13:25;;;;;;;9.77;5.72;;;;;;;2.51;69.45;101133.34;5039879;28;20498;-71
2022/11/22 08:15:52;;;;;;;9.57;4.90;;;;;;;2.53;69.27;101138.50;5040662;28;20045;-74
2022/11/22 08:18:19;;;;;;;11.10;5.18;;;;;;;2.54;69.80;101145.41;5037299;28;20053;-73
2022/11/22 08:20:47;;;;;;;12.00;5.38;;;;;;;2.55;69.45;101150.59;5033809;28;20089;-72
2022/11/22 08:23:14;;;;;;;13.13;5.60;;;;;;;2.55;69.83;101145.44;5036734;28;20486;-71
2022/11/22 08:25:41;;;;;;;12.52;6.55;;;;;;;2.58;69.46;101152.38;5039695;28;20060;-72
2022/11/22 08:28:08;;;;;;;14.20;5.35;;;;;;;2.55;69.15;101150.59;5038756;28;20049;-73
2022/11/22 08:30:35;;;;;;;11.10;5.70;;;;;;;2.58;69.26;101158.38;5038593;28;20052;-72
2022/11/22 08:33:02;;;;;;;9.93;5.32;;;;;;;2.60;69.53;101161.88;5040125;28;20075;-73
2022/11/22 08:35:29;;;;;;;12.02;4.90;;;;;;;2.60;69.43;101161.88;5040333;28;20056;-73
2022/11/22 08:37:58;;;;;;;10.88;5.25;;;;;;;2.61;69.60;101152.44;5037493;28;20139;-74
2022/11/22 08:40:24;;;;;;;9.80;5.07;;;;;;;2.62;69.77;101162.78;5040120;28;20521;-75
2022/11/22 08:42:54;;;;;;;11.30;4.35;;;;;;;2.64;69.43;101158.50;5036131;28;20052;-71
2022/11/22 08:45:21;;;;;;;10.07;5.05;;;;;;;2.66;69.70;101161.13;5039539;28;20065;-72
2022/11/22 08:47:48;;;;;;;13.35;4.90;;;;;;;2.67;69.17;101162.84;5035439;28;20568;-72
2022/11/22 08:50:17;;;;;;;7.50;4.72;;;;;;;2.66;69.13;101159.41;5035654;28;20460;-73
2022/11/22 08:52:44;;;;;;;11.38;4.90;;;;;;;2.69;68.99;101159.47;5039143;28;20052;-72
2022/11/22 08:55:12;;;;;;;8.93;4.95;;;;;;;2.67;69.27;101148.25;5036615;28;20048;-73
2022/11/22 08:57:39;;;;;;;9.85;5.60;;;;;;;2.70;69.19;101166.41;5033543;28;20048;-73
2022/11/22 09:00:07;;;;;;;11.57;5.75;;;;;;;2.70;69.46;101161.22;5035816;28;20037;-72
2022/11/22 09:02:34;;;;;;;10.18;5.50;;;;;;;2.71;69.67;101164.69;5037900;28;20040;-73
2022/11/22 09:05:01;;;;;;;11.90;4.93;;;;;;;2.72;69.53;101176.72;5041984;28;20055;-72
2022/11/22 09:07:29;;;;;;;10.40;4.88;;;;;;;2.73;69.71;101178.44;5038840;28;20146;-72
2022/11/22 09:09:56;;;;;;;9.13;4.57;;;;;;;2.65;68.84;101164.56;5039284;28;20041;-74
2022/11/22 09:12:24;;;;;;;13.18;5.45;;;;;;;2.75;69.01;101181.94;5038071;28;20052;-74
2022/11/22 09:14:51;;;;;;;11.65;4.60;;;;;;;2.76;69.06;101193.13;5036798;28;20144;-73
2022/11/22 09:17:18;;;;;;;9.70;5.60;;;;;;;2.77;69.30;101190.59;5035803;28;20042;-71
2022/11/22 09:19:45;;;;;;;13.00;5.47;;;;;;;2.79;69.44;101195.75;5035443;28;20052;-72
2022/11/22 09:22:12;;;;;;;11.27;5.43;;;;;;;2.79;68.75;101194.09;5033518;28;20049;-74
2022/11/22 09:24:39;;;;;;;10.45;5.07;;;;;;;2.80;68.68;101190.66;5043190;28;20041;-71
2022/11/22 09:27:06;;;;;;;9.60;4.25;;;;;;;2.80;68.95;101197.53;5035807;28;20572;-71
2022/11/22 09:29:35;;;;;;;10.13;4.82;;;;;;;2.77;68.89;101189.72;5035442;28;20054;-72
2022/11/22 09:32:02;;;;;;;11.73;5.55;;;;;;;2.83;69.16;101203.59;5039380;28;20530;-74
2022/11/22 09:34:29;;;;;;;10.88;5.28;;;;;;;2.82;68.84;101201.03;5044353;28;20073;-73
2022/11/22 09:36:56;;;;;;;11.93;5.88;;;;;;;2.83;68.81;101201.03;5040773;28;20055;-71
2022/11/22 09:39:23;;;;;;;11.60;6.15;;;;;;;2.84;68.84;101199.31;5039240;28;20044;-73
2022/11/22 09:42:26;;;;;;;10.07;5.93;;;;;;;2.85;68.98;101191.63;5039652;28;20044;-73
2022/11/22 09:45:39;;;;;;;8.63;4.40;;;;;;;2.85;68.94;101199.34;5040966;28;20046;-73
2022/11/22 09:48:22;;;;;;;11.68;5.15;;;;;;;2.86;68.81;101206.25;5041604;28;20052;-72
2022/11/22 09:50:58;;;;;;;8.48;4.30;;;;;;;2.86;69.24;101211.41;5043178;28;20041;-72
2022/11/22 09:53:33;;;;;;;8.30;4.53;;;;;;;2.88;68.83;101214.91;5041213;28;20513;-71
2022/11/22 09:56:03;;;;;;;9.02;4.47;;;;;;;2.89;68.57;101214.03;5036926;28;20053;-71
2022/11/22 09:58:33;;;;;;;9.48;4.25;;;;;;;2.90;68.59;101220.06;5042183;28;20101;-74
2022/11/22 10:01:10;;;;;;;5.88;3.33;;;;;;;2.91;68.96;101214.09;5043661;28;20065;-73
2022/11/22 10:03:45;;;;;;;9.85;4.10;;;;;;;2.93;69.10;101223.59;5041903;28;20053;-73
2022/11/22 10:06:20;;;;;;;6.85;3.55;;;;;;;2.96;68.52;101229.66;5042761;28;20506;-73
2022/11/22 10:08:58;;;;;;;5.72;3.47;;;;;;;2.96;68.59;101224.47;5036425;28;20049;-72
2022/11/22 10:11:34;;;;;;;5.60;3.25;;;;;;;2.97;68.85;101234.00;5038334;28;20041;-73
2022/11/22 10:14:09;;;;;;;9.50;4.00;;;;;;;2.97;68.51;101226.25;5041950;28;20049;-72
2022/11/22 10:16:42;;;;;;;7.93;3.40;;;;;;;3.00;68.14;101223.72;5043649;28;20052;-73
2022/11/22 10:19:15;;;;;;;5.15;3.30;;;;;;;3.00;68.52;101219.44;5041824;28;20136;-71
2022/11/22 10:21:45;;;;;;;7.60;3.55;;;;;;;3.01;68.24;101228.03;5040384;28;20045;-74
2022/11/22 10:24:16;;;;;;;8.10;4.03;;;;;;;2.98;68.46;101215.94;5041567;28;20478;-73
2022/11/22 10:26:43;;;;;;;7.57;3.22;;;;;;;3.04;68.22;101215.19;5041172;28;20053;-73
2022/11/22 10:29:22;;;;;;;8.55;3.90;;;;;;;3.05;68.27;101228.13;5039257;28;20041;-73
2022/11/22 10:31:57;;;;;;;7.25;3.83;;;;;;;3.05;67.82;101227.28;5043040;28;20053;-73
2022/11/22 10:34:36;;;;;;;4.28;2.78;;;;;;;3.08;68.44;101227.31;5040415;28;20207;-72
2022/11/22 10:37:10;;;;;;;7.15;3.33;;;;;;;3.07;67.81;101230.72;5040938;28;20041;-71
2022/11/22 10:40:01;;;;;;;7.18;2.80;;;;;;;3.08;68.14;101229.91;5040191;28;20135;-72
2022/11/22 10:42:46;;;;;;;4.80;3.00;;;;;;;2.97;68.20;101208.19;5041325;28;20049;-73
2022/11/22 10:45:20;;;;;;;9.52;3.20;;;;;;;3.10;67.82;101230.78;5040452;28;20045;-74
2022/11/22 10:48:05;;;;;;;4.63;2.63;;;;;;;3.11;67.97;101232.53;5040676;28;20056;-74
2022/11/22 10:50:46;;;;;;;6.30;2.95;;;;;;;3.05;68.96;101209.22;5040832;28;20049;-74
2022/11/22 10:53:24;;;;;;;5.15;3.50;;;;;;;3.11;68.16;101223.09;5039993;28;20054;-74
2022/11/22 10:55:57;;;;;;;5.35;2.92;;;;;;;3.07;68.40;101220.41;5039059;28;20041;-74
2022/11/22 10:58:35;;;;;;;7.03;3.33;;;;;;;3.13;68.40;101239.47;5037653;28;20041;-74
2022/11/22 11:01:10;;;;;;;4.68;2.90;;;;;;;3.14;67.91;101232.59;5043250;28;20041;-72
2022/11/22 11:03:43;;;;;;;5.20;3.17;;;;;;;3.13;68.30;101242.06;5039107;28;20052;-73
2022/11/22 11:06:18;;;;;;;6.00;3.40;;;;;;;3.13;67.68;101236.91;5039515;28;20049;-73
2022/11/22 11:08:49;;;;;;;6.45;3.53;;;;;;;3.12;67.43;101232.56;5041410;28;20478;-73
2022/11/22 11:11:16;;;;;;;6.78;3.17;;;;;;;3.12;67.84;101236.84;5038715;28;20702;-74
2022/11/22 11:13:47;;;;;;;7.30;3.60;;;;;;;3.12;67.68;101240.31;5039128;28;20041;-73
2022/11/22 11:16:19;;;;;;;5.55;2.95;;;;;;;3.09;67.64;101234.22;5037831;28;20055;-73
2022/11/22 11:18:53;;;;;;;6.70;3.15;;;;;;;3.15;67.62;101245.53;5041121;28;20437;-73
2022/11/22 11:21:20;;;;;;;3.13;1.70;;;;;;;3.15;68.00;101250.69;5039203;28;20045;-73
2022/11/22 11:23:47;;;;;;;5.47;2.95;;;;;;;3.13;67.68;101236.91;5039134;28;20290;-72
2022/11/22 11:26:20;;;;;;;7.20;3.42;;;;;;;3.18;68.02;101244.72;5043022;28;20045;-73
2022/11/22 11:28:48;;;;;;;5.55;3.58;;;;;;;3.17;67.21;101248.16;5037835;28;20049;-71
2022/11/22 11:31:17;;;;;;;6.80;3.22;;;;;;;3.18;67.19;101241.28;5040976;28;20060;-73
2022/11/22 11:33:45;;;;;;;6.75;3.40;;;;;;;3.15;67.44;101235.19;5040513;28;20544;-73
2022/11/22 11:36:18;;;;;;;6.10;3.38;;;;;;;3.19;67.70;101241.31;5039082;28;20482;-72
2022/11/22 11:38:53;;;;;;;4.55;2.40;;;;;;;3.22;66.86;101249.13;5037226;28;20575;-73
2022/11/22 11:41:27;;;;;;;6.70;3.78;;;;;;;3.23;67.18;101252.56;5037192;28;20049;-72
2022/11/22 11:43:56;;;;;;;9.18;4.05;;;;;;;3.22;67.33;101246.53;5040786;28;20041;-73
2022/11/22 11:46:25;;;;;;;5.95;2.90;;;;;;;3.22;67.13;101245.66;5037202;28;20136;-73
2022/11/22 11:48:52;;;;;;;5.65;3.47;;;;;;;3.24;66.94;101250.00;5040085;28;20057;-73
2022/11/22 11:51:26;;;;;;;6.95;3.10;;;;;;;3.24;66.88;101255.16;5034216;28;20042;-74
2022/11/22 11:54:00;;;;;;;6.35;3.50;;;;;;;3.25;67.35;101250.88;5040847;28;20045;-73